Time;durP1;ratioP1;P1;durP2;ratioP2;P2;SDS_P1;SDS_P2;PMS_P1;PMS_P2;Temp;Humidity;BMP_temperature;BMP_pressure;BME280_temperature;BME280_humidity;BME280_pressure;Samples;Min_cycle;Max_cycle;Signal;HPM_P1;HPM_P2
2023/04/30 00:02:18;;;;;;;5.70;5.10;;;;;;;11.43;100.00;154295.81;4999206;28;20539;-75
2023/04/30 00:04:44;;;;;;;7.20;6.10;;;;;;;11.39;100.00;154284.13;4985179;28;20476;-77
2023/04/30 00:07:11;;;;;;;6.73;6.10;;;;;;;11.39;100.00;154284.13;4969676;28;20474;-77
2023/04/30 00:09:37;;;;;;;7.53;6.10;;;;;;;11.37;100.00;154280.25;4989534;28;20436;-77
2023/04/30 00:12:05;;;;;;;7.30;6.17;;;;;;;11.36;100.00;154276.34;4996345;28;20468;-77
2023/04/30 00:14:32;;;;;;;8.30;6.10;;;;;;;11.32;100.00;154267.31;4972485;28;20457;-77
2023/04/30 00:16:59;;;;;;;8.10;6.60;;;;;;;11.30;100.00;154260.81;4990109;28;20465;-77
2023/04/30 00:19:26;;;;;;;7.47;6.47;;;;;;;11.29;100.00;154258.22;4981840;28;20460;-77
2023/04/30 00:21:52;;;;;;;9.17;6.80;;;;;;;11.27;100.00;154253.03;4980823;28;20465;-77
2023/04/30 00:24:19;;;;;;;9.10;6.97;;;;;;;11.25;100.00;154247.88;4970223;28;20478;-78
2023/04/30 00:26:45;;;;;;;7.60;6.80;;;;;;;11.24;100.00;154245.25;4983847;28;20469;-77
2023/04/30 00:29:12;;;;;;;9.03;6.77;;;;;;;11.23;100.00;154242.66;4975416;28;20454;-76
2023/04/30 00:31:40;;;;;;;7.60;6.70;;;;;;;11.22;100.00;154241.41;4970937;28;20892;-76
2023/04/30 00:34:07;;;;;;;8.50;7.60;;;;;;;11.20;100.00;154234.94;4969996;28;20446;-76
2023/04/30 00:36:33;;;;;;;7.70;6.77;;;;;;;11.18;100.00;154231.00;4998378;28;20477;-77
2023/04/30 00:39:00;;;;;;;8.70;6.00;;;;;;;11.16;100.00;154224.53;4986539;28;20439;-77
2023/04/30 00:41:27;;;;;;;7.53;6.10;;;;;;;11.16;100.00;154224.53;4979547;28;20854;-77
2023/04/30 00:43:54;;;;;;;8.07;6.67;;;;;;;11.14;100.00;154220.66;4986530;28;20458;-77
2023/04/30 00:46:20;;;;;;;9.13;8.20;;;;;;;11.15;100.00;154221.94;4979912;28;21035;-84
2023/04/30 00:48:49;;;;;;;10.10;7.17;;;;;;;11.12;100.00;154214.19;4989252;28;20912;-83
2023/04/30 00:51:16;;;;;;;10.20;8.60;;;;;;;11.12;100.00;154214.19;4985558;28;20475;-84
2023/04/30 00:53:43;;;;;;;8.07;6.57;;;;;;;11.04;100.00;154194.72;4975650;28;20464;-84
2023/04/30 00:56:10;;;;;;;8.57;6.93;;;;;;;11.04;100.00;154193.47;4987619;28;21038;-84
2023/04/30 00:58:37;;;;;;;8.93;6.97;;;;;;;11.00;100.00;154185.69;4976851;28;20486;-84
2023/04/30 01:01:04;;;;;;;7.73;6.67;;;;;;;10.96;100.00;154175.31;4983615;28;20461;-84
2023/04/30 01:03:30;;;;;;;7.70;6.60;;;;;;;11.00;100.00;154185.69;4965766;28;20506;-84
2023/04/30 01:05:58;;;;;;;8.90;7.20;;;;;;;10.95;100.00;154172.75;4985592;28;20482;-84
2023/04/30 01:08:25;;;;;;;7.10;5.60;;;;;;;10.93;100.00;154166.28;5003527;28;21393;-84
2023/04/30 01:10:56;;;;;;;8.27;6.40;;;;;;;10.92;100.00;154163.66;4982599;28;20487;-83
2023/04/30 01:13:29;;;;;;;7.83;6.37;;;;;;;10.91;100.00;154162.34;4975968;28;20475;-84
2023/04/30 01:16:00;;;;;;;7.83;6.60;;;;;;;10.93;100.00;154166.28;4988157;28;20426;-84
2023/04/30 01:18:30;;;;;;;8.63;6.90;;;;;;;10.95;100.00;154172.75;4969880;28;20466;-84
2023/04/30 01:21:02;;;;;;;7.20;6.50;;;;;;;10.94;100.00;154168.81;4978959;28;20586;-84
2023/04/30 01:23:42;;;;;;;8.10;7.10;;;;;;;10.98;100.00;154180.53;4981815;28;20548;-84
2023/04/30 01:26:14;;;;;;;9.03;7.27;;;;;;;11.01;100.00;154187.00;4971981;28;20473;-84
2023/04/30 01:28:43;;;;;;;8.27;6.97;;;;;;;10.96;100.00;154175.31;4976832;28;20992;-84
2023/04/30 01:31:13;;;;;;;7.67;6.47;;;;;;;10.90;100.00;154159.78;4982229;28;20536;-83
2023/04/30 01:33:40;;;;;;;9.23;6.93;;;;;;;10.90;100.00;154158.50;5000082;28;20465;-83
2023/04/30 01:36:21;;;;;;;9.20;7.70;;;;;;;10.87;100.00;154150.72;4985431;28;20458;-83
2023/04/30 01:39:03;;;;;;;7.67;6.43;;;;;;;10.84;100.00;154144.25;4967904;28;20463;-84
2023/04/30 01:41:34;;;;;;;8.10;6.70;;;;;;;10.82;100.00;154139.06;4986102;28;20486;-83
2023/04/30 01:44:12;;;;;;;7.67;6.87;;;;;;;10.81;100.00;154136.47;4972915;28;20466;-83
2023/04/30 01:46:40;;;;;;;8.10;6.90;;;;;;;10.78;100.00;154128.69;4972366;28;20457;-82
2023/04/30 01:49:13;;;;;;;9.23;7.20;;;;;;;10.73;100.00;154114.44;4976792;28;20583;-83
2023/04/30 01:51:41;;;;;;;8.57;7.20;;;;;;;10.68;100.00;154102.78;4974145;28;20583;-84
2023/04/30 01:54:16;;;;;;;9.47;8.27;;;;;;;10.64;100.00;154092.47;4975874;28;20453;-83
2023/04/30 01:57:03;;;;;;;11.33;8.90;;;;;;;10.65;100.00;154095.03;4978603;28;20507;-83
2023/04/30 01:59:31;;;;;;;12.73;7.97;;;;;;;10.63;100.00;154088.56;4973355;28;20452;-83
2023/04/30 02:01:58;;;;;;;11.50;8.67;;;;;;;10.63;100.00;154089.84;4973182;28;20561;-83
2023/04/30 02:04:24;;;;;;;9.65;7.75;;;;;;;10.64;100.00;154091.16;4990235;28;20782;-83
2023/04/30 02:06:51;;;;;;;11.37;8.90;;;;;;;10.61;100.00;154084.69;4999749;28;20496;-83
2023/04/30 02:09:17;;;;;;;10.03;8.33;;;;;;;10.61;100.00;154084.69;4985244;28;20468;-83
2023/04/30 02:11:44;;;;;;;10.67;9.03;;;;;;;10.61;100.00;154084.69;4995487;28;20472;-83
2023/04/30 02:14:11;;;;;;;11.10;8.87;;;;;;;10.63;100.00;154088.56;4974489;28;20536;-83
2023/04/30 02:16:39;;;;;;;11.00;8.90;;;;;;;10.60;100.00;154082.06;4987415;28;20548;-83
2023/04/30 02:19:05;;;;;;;12.27;9.93;;;;;;;10.57;100.00;154074.31;4975917;28;20490;-83
2023/04/30 02:21:32;;;;;;;10.77;8.67;;;;;;;10.55;100.00;154069.13;4995204;28;20457;-84
2023/04/30 02:23:58;;;;;;;10.47;8.30;;;;;;;10.55;100.00;154069.13;4991965;28;20465;-84
2023/04/30 02:26:25;;;;;;;12.17;10.50;;;;;;;10.51;100.00;154057.50;4976882;28;20492;-84
2023/04/30 02:28:52;;;;;;;11.53;9.27;;;;;;;10.50;100.00;154056.19;4968510;28;20755;-83
2023/04/30 02:31:19;;;;;;;10.90;9.20;;;;;;;10.52;100.00;154060.06;4987083;28;20473;-83
2023/04/30 02:33:47;;;;;;;11.83;8.80;;;;;;;10.51;100.00;154058.75;4997712;28;20464;-84
2023/04/30 02:36:13;;;;;;;14.13;9.90;;;;;;;10.50;100.00;154056.19;4987930;28;20542;-84
2023/04/30 02:38:40;;;;;;;11.67;9.30;;;;;;;10.47;100.00;154048.41;4974721;28;20464;-84
2023/04/30 02:41:08;;;;;;;11.37;9.20;;;;;;;10.45;100.00;154041.94;4972938;28;20540;-84
2023/04/30 02:43:34;;;;;;;10.43;8.20;;;;;;;10.43;100.00;154036.78;4985046;28;20461;-84
2023/04/30 02:46:01;;;;;;;11.10;8.70;;;;;;;10.44;100.00;154040.63;4962278;28;20481;-83
2023/04/30 02:48:27;;;;;;;9.40;8.40;;;;;;;10.43;100.00;154038.09;4973495;28;20544;-83
2023/04/30 02:50:55;;;;;;;12.90;8.93;;;;;;;10.44;100.00;154040.63;4991864;28;20463;-84
2023/04/30 02:53:22;;;;;;;13.03;10.40;;;;;;;10.42;100.00;154035.47;4978449;28;20460;-84
2023/04/30 02:55:48;;;;;;;11.10;9.67;;;;;;;10.41;100.00;154032.88;4971814;28;20461;-84
2023/04/30 02:58:15;;;;;;;11.30;9.17;;;;;;;10.38;100.00;154026.41;4987567;28;20591;-84
2023/04/30 03:00:41;;;;;;;10.77;8.80;;;;;;;10.37;100.00;154022.53;4976485;28;20481;-84
2023/04/30 03:03:08;;;;;;;10.47;8.93;;;;;;;10.40;100.00;154030.31;4956805;28;20573;-83
2023/04/30 03:05:34;;;;;;;11.57;9.50;;;;;;;10.37;100.00;154022.53;4987387;28;20522;-84
2023/04/30 03:08:02;;;;;;;12.47;9.47;;;;;;;10.35;100.00;154017.38;4989693;28;20503;-84
2023/04/30 03:10:29;;;;;;;11.67;10.30;;;;;;;10.39;100.00;154027.69;4986195;28;20455;-84
2023/04/30 03:12:56;;;;;;;11.53;9.87;;;;;;;10.34;100.00;154014.75;4974437;28;20793;-84
2023/04/30 03:15:22;;;;;;;12.27;10.47;;;;;;;10.27;100.00;153997.91;4991159;28;20466;-84
2023/04/30 03:17:49;;;;;;;11.40;8.97;;;;;;;10.22;100.00;153983.66;4984665;28;20469;-84
2023/04/30 03:20:15;;;;;;;11.83;8.37;;;;;;;10.23;100.00;153987.56;4995363;28;20473;-85
2023/04/30 03:22:42;;;;;;;12.10;8.83;;;;;;;10.23;100.00;153986.28;4984284;28;20485;-84
2023/04/30 03:25:11;;;;;;;10.37;8.83;;;;;;;10.23;100.00;153987.56;4975682;28;20512;-83
2023/04/30 03:27:38;;;;;;;10.10;8.63;;;;;;;10.23;100.00;153987.56;4983433;28;20469;-84
2023/04/30 03:30:06;;;;;;;10.83;9.17;;;;;;;10.26;100.00;153994.03;4997685;28;20541;-76
2023/04/30 03:32:32;;;;;;;11.40;9.43;;;;;;;10.28;100.00;153999.22;4969437;28;20560;-76
2023/04/30 03:35:00;;;;;;;10.50;9.40;;;;;;;10.22;100.00;153983.66;4983112;28;20552;-76
2023/04/30 03:37:26;;;;;;;15.43;10.80;;;;;;;10.25;100.00;153991.44;4995213;28;20581;-76
2023/04/30 03:39:53;;;;;;;12.03;9.30;;;;;;;10.28;100.00;153999.22;4987996;28;20471;-77
2023/04/30 03:42:21;;;;;;;11.37;8.57;;;;;;;10.29;100.00;154001.81;5000455;28;20454;-77
2023/04/30 03:44:47;;;;;;;12.77;10.20;;;;;;;10.26;100.00;153994.03;4996772;28;20710;-77
2023/04/30 03:47:14;;;;;;;15.03;9.67;;;;;;;10.26;100.00;153995.34;4985034;28;20489;-77
2023/04/30 03:49:40;;;;;;;12.50;9.53;;;;;;;10.23;100.00;153986.28;4988714;28;21023;-77
2023/04/30 03:52:07;;;;;;;10.90;9.10;;;;;;;10.18;100.00;153974.63;4967930;28;21007;-77
2023/04/30 03:54:34;;;;;;;10.30;9.10;;;;;;;10.16;100.00;153968.16;4976211;28;20460;-77
2023/04/30 03:57:03;;;;;;;13.17;9.00;;;;;;;10.14;100.00;153963.00;4967368;28;20992;-77
2023/04/30 03:59:32;;;;;;;10.53;8.40;;;;;;;10.20;100.00;153978.50;4974882;28;20452;-77
2023/04/30 04:02:00;;;;;;;13.20;9.97;;;;;;;10.15;100.00;153965.56;4982040;28;20466;-77
2023/04/30 04:04:26;;;;;;;11.17;9.20;;;;;;;10.14;100.00;153963.00;4975986;28;20456;-77
2023/04/30 04:06:53;;;;;;;12.60;10.23;;;;;;;10.14;100.00;153963.00;4971593;28;20524;-77
2023/04/30 04:09:20;;;;;;;12.07;9.80;;;;;;;10.11;100.00;153955.19;4963344;28;20466;-77
2023/04/30 04:11:47;;;;;;;12.10;9.93;;;;;;;10.12;100.00;153957.72;4983726;28;20967;-77
2023/04/30 04:14:15;;;;;;;11.63;8.90;;;;;;;10.12;100.00;153957.72;4966378;28;20478;-77
2023/04/30 04:16:43;;;;;;;12.67;9.43;;;;;;;10.10;100.00;153952.56;4974297;28;20515;-77
2023/04/30 04:19:11;;;;;;;10.37;9.30;;;;;;;10.12;100.00;153959.09;4976920;28;20588;-77
2023/04/30 04:21:38;;;;;;;10.57;8.80;;;;;;;10.10;100.00;153952.56;4984395;28;20453;-78
2023/04/30 04:24:11;;;;;;;9.77;8.53;;;;;;;10.15;100.00;153966.88;4964497;28;20461;-77
2023/04/30 04:26:38;;;;;;;14.80;9.33;;;;;;;10.25;100.00;153992.75;4976889;28;20488;-77
2023/04/30 04:29:04;;;;;;;11.70;10.07;;;;;;;10.19;100.00;153975.94;4978075;28;20477;-77
2023/04/30 04:31:31;;;;;;;12.80;9.57;;;;;;;10.16;100.00;153969.47;4973507;28;20988;-77
2023/04/30 04:34:02;;;;;;;11.70;9.03;;;;;;;10.15;100.00;153966.88;4987120;28;20953;-77
2023/04/30 04:36:29;;;;;;;10.50;9.40;;;;;;;10.14;100.00;153964.25;4988121;28;20448;-77
2023/04/30 04:39:00;;;;;;;11.70;8.27;;;;;;;10.10;100.00;153952.56;4980205;28;20481;-77
2023/04/30 04:41:27;;;;;;;9.37;8.37;;;;;;;10.08;100.00;153947.41;4996140;28;20468;-78
2023/04/30 04:43:55;;;;;;;11.23;8.67;;;;;;;10.14;100.00;153964.25;4993940;28;20811;-83
2023/04/30 04:46:22;;;;;;;12.10;9.77;;;;;;;10.19;100.00;153975.94;4961500;28;20507;-84
2023/04/30 04:48:51;;;;;;;11.97;9.37;;;;;;;10.17;100.00;153970.72;4973467;28;20441;-84
2023/04/30 04:51:19;;;;;;;11.10;8.80;;;;;;;10.29;100.00;154001.81;4961333;28;20497;-84
2023/04/30 04:53:46;;;;;;;12.20;10.07;;;;;;;10.25;100.00;153991.44;4988150;28;20464;-84
2023/04/30 04:56:12;;;;;;;11.83;9.20;;;;;;;10.24;100.00;153990.19;4991977;28;20472;-84
2023/04/30 04:58:39;;;;;;;10.60;9.43;;;;;;;10.20;100.00;153979.81;4989664;28;21114;-84
2023/04/30 05:01:06;;;;;;;11.13;9.10;;;;;;;10.20;100.00;153978.50;4962192;28;20506;-84
2023/04/30 05:03:33;;;;;;;12.77;9.70;;;;;;;10.17;100.00;153970.72;4965760;28;20462;-84
2023/04/30 05:06:00;;;;;;;10.80;8.40;;;;;;;10.19;100.00;153975.94;4985298;28;20551;-84
2023/04/30 05:08:28;;;;;;;11.80;9.53;;;;;;;10.16;100.00;153968.16;4974720;28;20873;-84
2023/04/30 05:10:54;;;;;;;11.40;9.60;;;;;;;10.19;100.00;153975.94;4973939;28;20824;-84
2023/04/30 05:13:21;;;;;;;15.13;11.17;;;;;;;10.15;100.00;153965.56;4978086;28;20465;-84
2023/04/30 05:15:49;;;;;;;12.23;9.70;;;;;;;10.17;100.00;153972.03;4975759;28;20480;-84
2023/04/30 05:18:15;;;;;;;11.83;8.90;;;;;;;10.27;100.00;153996.66;4975845;28;20848;-84
2023/04/30 05:20:42;;;;;;;12.40;10.17;;;;;;;10.29;100.00;154001.81;4976214;28;20527;-84
2023/04/30 05:23:08;;;;;;;13.20;10.63;;;;;;;10.34;100.00;154014.75;4973017;28;20501;-84
2023/04/30 05:25:36;;;;;;;11.80;9.10;;;;;;;10.30;100.00;154005.69;4971740;28;21042;-84
2023/04/30 05:28:03;;;;;;;10.10;8.60;;;;;;;10.31;100.00;154008.28;4978314;28;20539;-84
2023/04/30 05:30:30;;;;;;;11.87;9.43;;;;;;;10.34;100.00;154014.75;4976900;28;20813;-84
2023/04/30 05:32:57;;;;;;;10.77;9.40;;;;;;;10.40;100.00;154030.31;4976308;28;20460;-84
2023/04/30 05:35:24;;;;;;;13.83;8.90;;;;;;;10.46;100.00;154045.81;4990842;28;20464;-84
2023/04/30 05:37:51;;;;;;;13.10;9.80;;;;;;;10.52;100.00;154061.34;4977251;28;21264;-84
2023/04/30 05:40:17;;;;;;;12.00;9.93;;;;;;;10.54;100.00;154065.28;4976358;28;20942;-83
2023/04/30 05:42:45;;;;;;;11.53;9.33;;;;;;;10.55;100.00;154069.13;4978250;28;20460;-84
2023/04/30 05:45:13;;;;;;;13.93;9.37;;;;;;;10.60;100.00;154080.78;4972412;28;20464;-84
2023/04/30 05:47:40;;;;;;;11.33;9.37;;;;;;;10.76;100.00;154122.22;4961729;28;20553;-84
2023/04/30 05:50:17;;;;;;;13.27;10.63;;;;;;;10.81;100.00;154136.47;4991210;28;20472;-84
2023/04/30 05:52:44;;;;;;;12.70;10.27;;;;;;;10.92;99.79;154164.97;4979280;28;20535;-83
2023/04/30 05:55:11;;;;;;;13.90;9.23;;;;;;;10.98;100.00;154179.22;4975131;28;20488;-83
2023/04/30 05:57:37;;;;;;;12.80;9.60;;;;;;;11.06;99.28;154199.94;4973349;28;20480;-83
2023/04/30 06:00:07;;;;;;;10.57;9.20;;;;;;;11.08;99.02;154203.81;4975328;28;20990;-84
2023/04/30 06:02:38;;;;;;;11.60;9.47;;;;;;;11.02;99.25;154189.56;4975531;28;20465;-83
2023/04/30 06:05:06;;;;;;;10.50;8.70;;;;;;;11.11;99.61;154212.88;4977441;28;20490;-84
2023/04/30 06:07:33;;;;;;;11.83;9.80;;;;;;;11.18;99.29;154229.72;4992354;28;20533;-84
2023/04/30 06:09:59;;;;;;;12.03;9.27;;;;;;;11.29;99.09;154258.22;4981828;28;20702;-84
2023/04/30 06:12:26;;;;;;;9.70;8.53;;;;;;;11.38;97.09;154281.56;4994131;28;20468;-84
2023/04/30 06:14:52;;;;;;;10.40;9.00;;;;;;;11.51;95.34;154316.53;4979513;28;20454;-83
2023/04/30 06:17:20;;;;;;;13.30;9.83;;;;;;;11.54;94.47;154324.28;4980604;28;20459;-83
2023/04/30 06:19:47;;;;;;;12.63;9.73;;;;;;;11.52;93.40;154317.81;4974687;28;20458;-84
2023/04/30 06:22:14;;;;;;;11.03;8.83;;;;;;;11.48;94.63;154308.75;4979607;28;20474;-84
2023/04/30 06:24:40;;;;;;;10.97;9.23;;;;;;;11.57;94.72;154330.75;4970805;28;20516;-84
2023/04/30 06:27:07;;;;;;;10.87;8.93;;;;;;;11.59;92.67;154335.97;4981205;28;20493;-84
2023/04/30 06:29:33;;;;;;;10.17;8.23;;;;;;;11.65;93.32;154350.22;4985930;28;20459;-84
2023/04/30 06:32:00;;;;;;;10.50;9.40;;;;;;;11.78;93.37;154383.97;4980788;28;20825;-84
2023/04/30 06:34:28;;;;;;;10.70;9.60;;;;;;;11.86;92.11;154404.72;4979464;28;20459;-83
2023/04/30 06:36:55;;;;;;;11.47;8.90;;;;;;;11.92;92.55;154420.22;4997338;28;20833;-84
2023/04/30 06:39:21;;;;;;;10.30;8.10;;;;;;;11.90;92.46;154416.38;4980308;28;20462;-84
2023/04/30 06:41:48;;;;;;;9.27;8.33;;;;;;;11.91;92.05;154418.97;4982273;28;20575;-84
2023/04/30 06:44:15;;;;;;;11.87;8.53;;;;;;;12.08;91.46;154461.72;4983577;28;20469;-84
2023/04/30 06:46:42;;;;;;;9.77;8.33;;;;;;;12.12;91.36;154473.41;4979718;28;21087;-84
2023/04/30 06:49:09;;;;;;;11.10;9.60;;;;;;;12.32;91.49;154523.94;4977412;28;20457;-84
2023/04/30 06:51:37;;;;;;;9.57;8.60;;;;;;;12.38;89.69;154538.22;4987280;28;20476;-84
2023/04/30 06:54:05;;;;;;;11.60;8.33;;;;;;;12.61;90.32;154597.84;4997510;28;20474;-84
2023/04/30 06:56:31;;;;;;;9.50;7.90;;;;;;;12.88;88.11;154666.59;4996060;28;20556;-84
2023/04/30 06:58:58;;;;;;;10.00;9.00;;;;;;;13.07;86.98;154717.25;4980378;28;20492;-84
2023/04/30 07:01:24;;;;;;;10.10;7.70;;;;;;;13.26;86.09;154765.28;4982244;28;20489;-84
2023/04/30 07:03:53;;;;;;;12.27;9.20;;;;;;;13.54;84.33;154837.91;4969177;28;20465;-84
2023/04/30 07:06:20;;;;;;;8.97;7.70;;;;;;;13.66;83.38;154869.06;4984915;28;20524;-84
2023/04/30 07:08:48;;;;;;;9.13;7.60;;;;;;;13.74;83.18;154888.56;4985667;28;20450;-84
2023/04/30 07:11:15;;;;;;;9.50;8.33;;;;;;;13.77;82.49;154897.63;4982288;28;20471;-84
2023/04/30 07:13:42;;;;;;;9.63;8.37;;;;;;;13.65;81.86;154866.50;4976749;28;21899;-84
2023/04/30 07:16:10;;;;;;;10.83;7.83;;;;;;;13.53;81.89;154834.06;4975847;28;20559;-83
2023/04/30 07:18:36;;;;;;;9.87;8.07;;;;;;;13.27;82.72;154767.84;4978432;28;20588;-83
2023/04/30 07:21:03;;;;;;;9.10;7.87;;;;;;;13.13;83.04;154732.78;4978064;28;20454;-84
2023/04/30 07:23:44;;;;;;;8.03;7.20;;;;;;;13.12;83.79;154728.94;4974467;28;20562;-84
2023/04/30 07:26:12;;;;;;;9.80;8.00;;;;;;;13.19;82.89;154748.38;4982711;28;20537;-84
2023/04/30 07:28:39;;;;;;;8.53;7.60;;;;;;;13.20;82.15;154749.69;4979430;28;20496;-83
2023/04/30 07:31:06;;;;;;;9.07;7.07;;;;;;;13.17;82.27;154743.22;4962349;28;20495;-84
2023/04/30 07:33:33;;;;;;;8.93;8.10;;;;;;;13.28;82.05;154771.75;4994926;28;20446;-84
2023/04/30 07:35:59;;;;;;;9.20;8.20;;;;;;;13.70;81.12;154878.16;4992698;28;20476;-84
2023/04/30 07:38:26;;;;;;;11.40;9.00;;;;;;;14.01;79.62;154958.63;4979074;28;20755;-84
2023/04/30 07:40:53;;;;;;;9.63;8.60;;;;;;;14.26;79.82;155023.56;4981948;28;20868;-84
2023/04/30 07:43:21;;;;;;;8.20;7.40;;;;;;;14.57;78.24;155102.81;4995421;28;20470;-84
2023/04/30 07:45:48;;;;;;;9.50;7.73;;;;;;;14.64;76.23;155122.28;4976007;28;20824;-84
2023/04/30 07:48:16;;;;;;;8.50;7.57;;;;;;;14.70;74.30;155135.28;4977085;28;20683;-85
2023/04/30 07:50:42;;;;;;;8.57;7.67;;;;;;;14.77;76.49;155153.50;4982061;28;20467;-84
2023/04/30 07:53:09;;;;;;;9.07;7.60;;;;;;;14.96;75.52;155202.81;4990557;28;20529;-84
2023/04/30 07:55:35;;;;;;;8.23;7.40;;;;;;;14.96;73.68;155202.81;4976441;28;20458;-85
2023/04/30 07:58:02;;;;;;;8.17;7.17;;;;;;;14.84;73.22;155172.97;4963418;28;20487;-84
2023/04/30 08:00:30;;;;;;;8.00;7.20;;;;;;;14.78;73.99;155156.06;4979766;28;21001;-83
2023/04/30 08:02:58;;;;;;;10.50;8.17;;;;;;;14.95;73.29;155200.25;4977753;28;20546;-84
2023/04/30 08:05:24;;;;;;;8.07;7.03;;;;;;;14.80;71.88;155161.31;4977415;28;20497;-85
2023/04/30 08:07:51;;;;;;;8.23;7.43;;;;;;;14.88;71.40;155182.09;4992986;28;20497;-84
2023/04/30 08:10:17;;;;;;;7.00;6.27;;;;;;;15.04;72.67;155223.63;4979752;28;20440;-85
2023/04/30 08:12:44;;;;;;;7.10;5.97;;;;;;;15.08;70.85;155235.34;4978594;28;20471;-84
2023/04/30 08:15:11;;;;;;;5.80;5.23;;;;;;;14.76;70.81;155152.19;4976371;28;20447;-84
2023/04/30 08:17:39;;;;;;;7.77;6.27;;;;;;;14.45;72.15;155072.97;4979924;28;20458;-84
2023/04/30 08:20:07;;;;;;;8.13;6.60;;;;;;;14.25;72.00;155020.94;4995427;28;20454;-84
2023/04/30 08:22:33;;;;;;;7.33;6.20;;;;;;;14.31;72.07;155036.59;4993024;28;20458;-84
2023/04/30 08:25:01;;;;;;;6.60;5.90;;;;;;;14.16;70.44;154997.59;4978188;28;21007;-84
2023/04/30 08:27:28;;;;;;;7.13;6.40;;;;;;;14.01;70.56;154959.94;4991074;28;20920;-84
2023/04/30 08:29:54;;;;;;;7.03;6.17;;;;;;;13.96;71.58;154946.94;4978634;28;20912;-84
2023/04/30 08:32:21;;;;;;;6.73;6.03;;;;;;;13.80;71.00;154905.41;4981729;28;20965;-84
2023/04/30 08:34:49;;;;;;;8.00;5.40;;;;;;;13.78;71.55;154900.22;4979214;28;20459;-83
2023/04/30 08:37:15;;;;;;;6.20;5.60;;;;;;;13.81;71.33;154906.72;4973756;28;20459;-84
2023/04/30 08:39:42;;;;;;;7.63;5.40;;;;;;;13.90;71.67;154930.06;4974746;28;20891;-83
2023/04/30 08:42:09;;;;;;;5.90;5.13;;;;;;;13.92;69.16;154935.28;4977173;28;20462;-83
2023/04/30 08:44:38;;;;;;;4.70;4.30;;;;;;;14.05;69.22;154969.03;4975242;28;20450;-84
2023/04/30 08:47:07;;;;;;;5.67;4.53;;;;;;;14.17;67.87;155000.19;4969462;28;21031;-83
2023/04/30 08:49:35;;;;;;;5.37;4.87;;;;;;;14.29;66.44;155031.38;4991722;28;20454;-83
2023/04/30 08:52:03;;;;;;;5.67;5.07;;;;;;;14.28;66.18;155028.75;4977273;28;20784;-84
2023/04/30 08:54:31;;;;;;;5.30;4.80;;;;;;;13.97;65.90;154949.56;4974134;28;20461;-84
2023/04/30 08:56:57;;;;;;;4.53;4.13;;;;;;;14.04;66.67;154966.41;4973510;28;20561;-84
2023/04/30 08:59:24;;;;;;;4.53;4.13;;;;;;;13.98;67.24;154950.81;4979838;28;20512;-84
2023/04/30 09:01:51;;;;;;;5.00;4.00;;;;;;;13.90;66.05;154930.06;4976100;28;20465;-83
2023/04/30 09:04:17;;;;;;;4.13;3.70;;;;;;;13.87;66.12;154922.31;4981229;28;20465;-84
2023/04/30 09:06:45;;;;;;;7.17;4.67;;;;;;;14.01;66.38;154958.63;4975901;28;20461;-84
2023/04/30 09:09:14;;;;;;;4.57;4.13;;;;;;;14.13;65.74;154988.50;4998731;28;20445;-84
2023/04/30 09:11:42;;;;;;;6.07;4.50;;;;;;;14.08;64.92;154976.84;4976835;28;20971;-84
2023/04/30 09:14:08;;;;;;;4.73;4.20;;;;;;;14.04;65.09;154967.72;4983168;28;20454;-84
2023/04/30 09:16:46;;;;;;;5.00;4.50;;;;;;;13.97;64.95;154948.25;4983795;28;20792;-84
2023/04/30 09:19:23;;;;;;;5.20;4.70;;;;;;;13.97;65.66;154948.25;4981603;28;20813;-84
2023/04/30 09:21:49;;;;;;;5.47;4.03;;;;;;;13.96;65.22;154945.66;4978772;28;20462;-84
2023/04/30 09:24:17;;;;;;;5.13;4.63;;;;;;;13.89;64.37;154927.50;4978430;28;20464;-84
2023/04/30 09:26:46;;;;;;;4.47;4.07;;;;;;;13.88;64.56;154926.19;4977157;28;20829;-85
2023/04/30 09:29:13;;;;;;;4.27;3.87;;;;;;;13.87;63.66;154923.56;4984189;28;20520;-84
2023/04/30 09:31:43;;;;;;;4.80;4.00;;;;;;;13.93;64.21;154939.16;4985140;28;20454;-85
2023/04/30 09:34:09;;;;;;;4.27;3.67;;;;;;;13.98;63.25;154952.13;4981083;28;20801;-84
2023/04/30 09:36:36;;;;;;;4.30;3.87;;;;;;;14.07;63.59;154974.22;4983120;28;20606;-84
2023/04/30 09:39:07;;;;;;;4.03;3.63;;;;;;;14.17;65.00;155000.19;4983865;28;20458;-84
2023/04/30 09:41:35;;;;;;;4.20;3.80;;;;;;;14.29;63.79;155030.06;4978408;28;20926;-84
2023/04/30 09:44:02;;;;;;;4.27;3.70;;;;;;;14.38;63.44;155053.47;4959110;28;20465;-84
2023/04/30 09:46:33;;;;;;;4.40;4.00;;;;;;;14.39;62.91;155057.38;4984904;28;20466;-84
2023/04/30 09:49:02;;;;;;;4.27;3.87;;;;;;;14.43;63.46;155066.44;4978733;28;20956;-83
2023/04/30 09:51:29;;;;;;;4.53;3.60;;;;;;;14.43;62.99;155066.44;4979414;28;20458;-83
2023/04/30 09:53:56;;;;;;;4.57;4.17;;;;;;;14.43;62.13;155066.44;4981738;28;20526;-83
2023/04/30 09:56:24;;;;;;;4.13;3.43;;;;;;;14.51;62.44;155087.22;4983922;28;20457;-83
2023/04/30 09:58:54;;;;;;;4.80;3.83;;;;;;;14.50;62.45;155085.97;4985318;28;20470;-83
2023/04/30 10:01:21;;;;;;;4.40;4.00;;;;;;;14.43;62.22;155066.44;4990418;28;20475;-83
2023/04/30 10:03:49;;;;;;;3.87;3.57;;;;;;;14.42;62.21;155065.19;4984006;28;20470;-83
2023/04/30 10:06:17;;;;;;;4.17;3.77;;;;;;;14.48;62.44;155079.47;4979408;28;20866;-84
2023/04/30 10:08:47;;;;;;;4.40;4.00;;;;;;;14.53;62.20;155093.72;4979774;28;20496;-84
2023/04/30 10:11:16;;;;;;;4.47;4.07;;;;;;;14.56;60.85;155100.25;4982652;28;21061;-84
2023/04/30 10:13:46;;;;;;;3.87;3.30;;;;;;;14.64;60.40;155121.00;4981559;28;20922;-84
2023/04/30 10:16:25;;;;;;;4.53;3.77;;;;;;;14.57;61.50;155104.13;4981716;28;20459;-84
2023/04/30 10:18:54;;;;;;;8.03;3.70;;;;;;;14.62;60.85;155117.09;4971197;28;20819;-84
2023/04/30 10:21:22;;;;;;;3.90;3.50;;;;;;;14.75;60.19;155149.56;4980675;28;21078;-83
2023/04/30 10:23:50;;;;;;;3.67;3.30;;;;;;;14.83;59.59;155169.06;4977805;28;20443;-83
2023/04/30 10:26:18;;;;;;;4.20;3.80;;;;;;;14.83;58.75;155170.34;4980684;28;20553;-85
2023/04/30 10:28:46;;;;;;;5.03;3.67;;;;;;;14.75;59.78;155148.25;4982318;28;22011;-84
2023/04/30 10:31:13;;;;;;;3.93;3.53;;;;;;;14.82;60.31;155166.47;4980282;28;20956;-85
2023/04/30 10:33:54;;;;;;;3.40;3.10;;;;;;;14.93;59.05;155196.34;4979771;28;20476;-84
2023/04/30 10:36:26;;;;;;;4.20;3.40;;;;;;;15.04;60.93;155223.63;4983186;28;20835;-85
2023/04/30 10:38:53;;;;;;;3.87;3.47;;;;;;;15.05;58.58;155226.22;4974435;28;20479;-84
2023/04/30 10:41:20;;;;;;;5.60;3.90;;;;;;;15.10;58.57;155240.53;4986382;28;20446;-84
2023/04/30 10:43:47;;;;;;;3.87;3.50;;;;;;;15.08;59.40;155234.03;4989569;28;20456;-84
2023/04/30 10:46:22;;;;;;;5.87;4.70;;;;;;;14.90;59.14;155187.28;4995578;28;21454;-84
2023/04/30 10:48:50;;;;;;;4.47;3.93;;;;;;;14.80;60.49;155161.31;4997566;28;20506;-84
2023/04/30 10:51:17;;;;;;;5.20;4.70;;;;;;;14.69;59.91;155134.03;4987327;28;20815;-84
2023/04/30 10:53:44;;;;;;;6.33;3.90;;;;;;;14.64;60.25;155121.00;4983648;28;20460;-84
2023/04/30 10:56:11;;;;;;;6.27;4.47;;;;;;;14.54;61.04;155096.31;4983637;28;20459;-84
2023/04/30 10:58:42;;;;;;;4.40;3.97;;;;;;;14.53;60.85;155092.47;4982694;28;20470;-84
2023/04/30 11:01:12;;;;;;;4.80;4.40;;;;;;;14.52;61.32;155089.84;4994657;28;20451;-84
2023/04/30 11:03:41;;;;;;;6.33;4.93;;;;;;;14.60;61.61;155111.94;4985424;28;20496;-84
2023/04/30 11:06:11;;;;;;;5.73;4.97;;;;;;;14.61;61.11;155114.50;4983607;28;20588;-84
2023/04/30 11:08:40;;;;;;;7.00;4.60;;;;;;;14.63;61.27;155119.72;4998233;28;20516;-84
2023/04/30 11:11:08;;;;;;;5.17;4.67;;;;;;;14.64;61.21;155122.28;4987003;28;20486;-84
2023/04/30 11:13:45;;;;;;;5.50;5.00;;;;;;;14.73;61.40;155144.38;4985788;28;20456;-84
2023/04/30 11:16:11;;;;;;;4.80;4.10;;;;;;;14.72;60.76;155140.50;4987556;28;20860;-84
2023/04/30 11:18:42;;;;;;;4.50;4.10;;;;;;;14.63;59.67;155119.72;4981388;28;20464;-84
2023/04/30 11:21:10;;;;;;;4.90;4.40;;;;;;;14.61;60.05;155113.25;4984384;28;20539;-84